createdAt,value
2018-04-25T00:01:10.184Z,12.50
2018-04-25T00:03:36.353Z,12.50
2018-04-25T00:06:02.620Z,12.50
2018-04-25T00:08:28.822Z,12.50
2018-04-25T00:10:55.129Z,12.50
2018-04-25T00:13:21.303Z,12.40
2018-04-25T00:15:47.414Z,12.40
2018-04-25T00:18:13.585Z,12.40
2018-04-25T00:20:39.731Z,12.40
2018-04-25T00:23:05.862Z,12.40
2018-04-25T00:25:32.000Z,12.50
2018-04-25T00:27:58.119Z,12.40
2018-04-25T00:30:24.413Z,12.30
2018-04-25T00:32:50.670Z,12.30
2018-04-25T00:35:17.572Z,12.20
2018-04-25T00:37:43.732Z,12.20
2018-04-25T00:40:09.975Z,12.30
2018-04-25T00:42:36.141Z,12.30
2018-04-25T00:45:02.366Z,12.30
2018-04-25T00:47:28.587Z,12.30
2018-04-25T00:49:54.755Z,12.30
2018-04-25T00:52:21.047Z,12.30
2018-04-25T00:54:47.237Z,12.40
2018-04-25T00:57:13.466Z,12.40
2018-04-25T00:59:39.624Z,12.40
2018-04-25T01:02:06.537Z,12.40
2018-04-25T01:04:32.762Z,12.40
2018-04-25T01:06:58.961Z,12.40
2018-04-25T01:09:25.191Z,12.50
2018-04-25T01:11:51.381Z,12.50
2018-04-25T01:14:17.490Z,12.50
2018-04-25T01:16:43.718Z,12.60
2018-04-25T01:19:09.839Z,12.60
2018-04-25T01:21:36.023Z,12.60
2018-04-25T01:24:02.956Z,12.50
2018-04-25T01:26:29.131Z,12.50
2018-04-25T01:28:56.064Z,12.60
2018-04-25T01:31:32.483Z,12.60
2018-04-25T01:34:05.208Z,12.60
2018-04-25T01:36:31.366Z,12.60
2018-04-25T01:39:01.328Z,12.70
2018-04-25T01:41:28.467Z,12.70
2018-04-25T01:43:55.434Z,12.70
2018-04-25T01:46:24.394Z,12.60
2018-04-25T01:51:58.803Z,12.70
2018-04-25T01:54:37.286Z,12.60
2018-04-25T01:57:15.810Z,12.70
2018-04-25T01:59:54.212Z,12.70
2018-04-25T02:02:20.332Z,12.70
2018-04-25T02:04:46.515Z,12.70
2018-04-25T02:07:12.748Z,12.70
2018-04-25T02:09:39.131Z,12.80
2018-04-25T02:12:05.396Z,12.70
2018-04-25T02:14:31.663Z,12.80
2018-04-25T02:16:58.671Z,12.80
2018-04-25T02:19:25.018Z,12.80
2018-04-25T02:21:51.243Z,12.80
2018-04-25T02:24:17.472Z,12.90
2018-04-25T02:26:44.721Z,12.80
2018-04-25T02:29:11.052Z,12.90
2018-04-25T02:31:37.331Z,12.80
2018-04-25T02:34:04.091Z,12.70
2018-04-25T02:36:30.355Z,12.80
2018-04-25T02:38:56.595Z,12.80
2018-04-25T02:41:23.523Z,12.80
2018-04-25T02:43:49.872Z,12.80
2018-04-25T02:46:16.903Z,12.90
2018-04-25T02:48:43.131Z,12.80
2018-04-25T02:51:09.376Z,12.90
2018-04-25T02:53:37.347Z,13.00
2018-04-25T02:56:04.296Z,13.10
2018-04-25T02:58:31.193Z,13.10
2018-04-25T03:00:57.469Z,13.10
2018-04-25T03:03:24.398Z,13.10
2018-04-25T03:05:50.645Z,13.10
2018-04-25T03:08:17.620Z,13.20
2018-04-25T03:10:43.887Z,13.20
2018-04-25T03:13:10.188Z,13.20
2018-04-25T03:15:36.440Z,13.30
2018-04-25T03:18:03.384Z,13.30
2018-04-25T03:20:29.667Z,13.30
2018-04-25T03:22:55.843Z,13.50
2018-04-25T03:25:22.219Z,13.50
2018-04-25T03:27:48.467Z,13.50
2018-04-25T03:30:14.676Z,13.50
2018-04-25T03:32:40.864Z,13.50
2018-04-25T03:35:07.095Z,13.60
2018-04-25T03:37:33.235Z,13.60
2018-04-25T03:39:59.347Z,13.60
2018-04-25T03:42:26.258Z,13.60
2018-04-25T03:44:52.463Z,13.60
2018-04-25T03:47:18.678Z,13.60
2018-04-25T03:49:45.564Z,13.60
2018-04-25T03:52:11.716Z,13.60
2018-04-25T03:54:37.859Z,13.60
2018-04-25T03:57:04.931Z,13.60
2018-04-25T03:59:31.104Z,13.60
2018-04-25T04:01:57.248Z,13.60
2018-04-25T04:04:23.384Z,13.60
2018-04-25T04:06:49.530Z,13.50
2018-04-25T04:09:16.536Z,13.50
2018-04-25T04:11:42.703Z,13.50
2018-04-25T04:14:09.591Z,13.50
2018-04-25T04:16:35.733Z,13.60
2018-04-25T04:19:01.940Z,13.60
2018-04-25T04:21:28.084Z,13.60
2018-04-25T04:23:54.212Z,13.60
2018-04-25T04:26:20.373Z,13.70
2018-04-25T04:28:47.269Z,13.70
2018-04-25T04:31:14.410Z,13.70
2018-04-25T04:33:40.543Z,13.70
2018-04-25T04:36:06.703Z,13.80
2018-04-25T04:38:32.836Z,13.90
2018-04-25T04:40:59.046Z,14.00
2018-04-25T04:43:25.172Z,14.00
2018-04-25T04:45:51.467Z,14.10
2018-04-25T04:48:17.640Z,14.10
2018-04-25T04:50:43.971Z,14.20
2018-04-25T04:53:10.316Z,14.30
2018-04-25T04:55:37.215Z,14.30
2018-04-25T04:58:03.378Z,14.30
2018-04-25T05:00:30.280Z,14.40
2018-04-25T05:02:56.539Z,14.40
2018-04-25T05:05:22.679Z,14.40
2018-04-25T05:07:49.649Z,14.40
2018-04-25T05:10:15.796Z,14.50
2018-04-25T05:12:41.956Z,14.50
2018-04-25T05:15:08.240Z,14.50
2018-04-25T05:17:34.610Z,14.60
2018-04-25T05:20:00.950Z,14.60
2018-04-25T05:22:27.067Z,14.70
2018-04-25T05:24:53.249Z,14.80
2018-04-25T05:27:19.500Z,14.80
2018-04-25T05:29:46.709Z,14.80
2018-04-25T05:32:13.678Z,14.90
2018-04-25T05:34:39.843Z,14.90
2018-04-25T05:37:06.019Z,14.90
2018-04-25T05:39:32.243Z,14.90
2018-04-25T05:41:59.260Z,15.00
2018-04-25T05:44:25.588Z,15.00
2018-04-25T05:46:51.724Z,15.10
2018-04-25T05:49:17.887Z,15.20
2018-04-25T05:51:44.172Z,15.30
2018-04-25T05:54:10.295Z,15.30
2018-04-25T05:56:36.516Z,15.30
2018-04-25T05:59:03.401Z,15.30
2018-04-25T06:01:29.617Z,15.30
2018-04-25T06:03:56.478Z,15.40
2018-04-25T06:06:22.607Z,15.40
2018-04-25T06:08:48.847Z,15.50
2018-04-25T06:11:15.031Z,15.50
2018-04-25T06:13:41.176Z,15.50
2018-04-25T06:16:08.052Z,15.70
2018-04-25T06:18:34.216Z,15.70
2018-04-25T06:21:00.349Z,15.90
2018-04-25T06:23:26.492Z,15.90
2018-04-25T06:25:53.366Z,15.80
2018-04-25T06:28:19.590Z,15.70
2018-04-25T06:30:46.548Z,15.90
2018-04-25T06:33:12.659Z,15.80
2018-04-25T06:35:38.831Z,15.80
2018-04-25T06:38:04.960Z,15.80
2018-04-25T06:40:31.098Z,15.80
2018-04-25T06:42:57.219Z,15.80
2018-04-25T06:45:23.337Z,15.90
2018-04-25T06:47:49.536Z,15.80
2018-04-25T06:50:15.676Z,15.80
2018-04-25T06:52:41.800Z,15.80
2018-04-25T06:55:07.940Z,15.80
2018-04-25T06:57:34.102Z,15.90
2018-04-25T07:00:01.027Z,16.10
2018-04-25T07:02:27.160Z,16.10
2018-04-25T07:04:54.078Z,15.90
2018-04-25T07:07:20.212Z,15.90
2018-04-25T07:09:46.352Z,15.80
2018-04-25T07:12:12.560Z,15.70
2018-04-25T07:14:40.176Z,15.50
2018-04-25T07:17:06.328Z,15.50
2018-04-25T07:19:33.200Z,15.00
2018-04-25T07:21:59.348Z,15.00
2018-04-25T07:24:26.230Z,14.70
2018-04-25T07:26:52.377Z,14.60
2018-04-25T07:29:18.648Z,14.30
2018-04-25T07:31:45.517Z,14.20
2018-04-25T07:34:11.703Z,14.20
2018-04-25T07:36:37.840Z,14.20
2018-04-25T07:39:04.709Z,14.20
2018-04-25T07:41:30.844Z,14.10
2018-04-25T07:43:56.968Z,14.10
2018-04-25T07:46:23.159Z,13.90
2018-04-25T07:48:49.560Z,13.70
2018-04-25T07:51:15.708Z,13.50
2018-04-25T07:53:41.861Z,13.20
2018-04-25T07:56:08.771Z,12.70
2018-04-25T08:01:26.940Z,12.70
2018-04-25T08:03:53.084Z,12.80
2018-04-25T08:06:19.947Z,13.10
2018-04-25T08:08:46.071Z,13.10
2018-04-25T08:11:12.485Z,13.30
2018-04-25T08:13:51.694Z,13.60
2018-04-25T08:16:41.809Z,13.60
2018-04-25T08:19:21.007Z,13.90
2018-04-25T08:21:47.920Z,14.10
2018-04-25T08:24:14.064Z,14.10
2018-04-25T08:26:40.200Z,14.20
2018-04-25T08:29:06.368Z,14.30
2018-04-25T08:31:33.297Z,14.50
2018-04-25T08:33:59.433Z,14.50
2018-04-25T08:36:26.319Z,14.90
2018-04-25T08:38:52.476Z,14.80
2018-04-25T08:41:18.686Z,15.00
2018-04-25T08:43:44.826Z,15.30
2018-04-25T08:46:10.952Z,15.50
2018-04-25T08:48:37.120Z,15.70
2018-04-25T08:51:03.270Z,15.70
2018-04-25T08:53:29.410Z,15.80
2018-04-25T08:55:55.639Z,15.80
2018-04-25T08:58:21.768Z,15.50
2018-04-25T09:00:47.895Z,15.40
2018-04-25T09:03:14.024Z,15.10
2018-04-25T09:05:40.150Z,15.10
2018-04-25T09:08:07.344Z,15.20
2018-04-25T09:10:34.212Z,15.60
2018-04-25T09:13:00.418Z,15.60
2018-04-25T09:15:27.335Z,15.80
2018-04-25T09:17:53.499Z,15.80
2018-04-25T09:20:20.408Z,16.40
2018-04-25T09:22:46.547Z,16.30
2018-04-25T09:25:12.684Z,16.40
2018-04-25T09:27:39.563Z,15.80
2018-04-25T09:30:05.924Z,15.80
2018-04-25T09:32:32.048Z,15.50
2018-04-25T09:34:58.232Z,15.20
2018-04-25T09:37:24.364Z,15.40
2018-04-25T09:39:50.563Z,15.20
2018-04-25T09:42:17.453Z,14.80
2018-04-25T09:44:43.582Z,14.70
2018-04-25T09:47:09.765Z,14.60
2018-04-25T09:49:35.924Z,14.60
2018-04-25T09:52:02.077Z,14.60
2018-04-25T09:54:28.220Z,14.90
2018-04-25T09:56:54.521Z,15.00
2018-04-25T09:59:20.668Z,15.00
2018-04-25T10:01:53.056Z,15.20
2018-04-25T10:04:19.179Z,15.40
2018-04-25T10:06:45.360Z,15.40
2018-04-25T10:09:11.484Z,14.90
2018-04-25T10:11:37.631Z,14.90
2018-04-25T10:14:04.611Z,15.10
2018-04-25T10:16:30.757Z,15.00
2018-04-25T10:18:57.621Z,14.90
2018-04-25T10:21:23.772Z,14.90
2018-04-25T10:23:49.910Z,14.80
2018-04-25T10:26:16.054Z,14.70
2018-04-25T10:28:42.192Z,14.70
2018-04-25T10:31:09.059Z,14.90
2018-04-25T10:33:35.205Z,14.90
2018-04-25T10:36:01.344Z,14.90
2018-04-25T10:38:27.598Z,15.10
2018-04-25T10:40:53.742Z,14.90
2018-04-25T10:43:20.644Z,14.90
2018-04-25T10:45:46.821Z,14.90
2018-04-25T10:48:13.719Z,15.00
2018-04-25T10:50:39.835Z,15.00
2018-04-25T10:53:05.983Z,14.70
2018-04-25T10:55:32.157Z,14.00
2018-04-25T10:57:58.283Z,13.70
2018-04-25T11:00:24.483Z,13.50
2018-04-25T11:02:50.615Z,13.50
2018-04-25T11:05:16.833Z,13.40
2018-04-25T11:07:42.947Z,13.50
2018-04-25T11:10:09.141Z,13.60
2018-04-25T11:12:35.280Z,13.50
2018-04-25T11:15:01.416Z,13.20
2018-04-25T11:17:27.664Z,13.20
2018-04-25T11:19:53.814Z,13.30
2018-04-25T11:22:20.711Z,13.00
2018-04-25T11:24:46.849Z,12.90
2018-04-25T11:27:13.024Z,12.90
2018-04-25T11:29:39.182Z,12.60
2018-04-25T11:32:07.355Z,12.30
2018-04-25T11:34:33.576Z,12.20
2018-04-25T11:36:59.805Z,12.30
2018-04-25T11:39:25.963Z,12.20
2018-04-25T11:41:52.863Z,12.10
2018-04-25T11:44:19.000Z,12.10
2018-04-25T11:46:45.152Z,12.10
2018-04-25T11:49:11.332Z,12.20
2018-04-25T11:51:37.515Z,12.40
2018-04-25T11:54:04.426Z,12.60
2018-04-25T11:56:30.607Z,12.60
2018-04-25T11:58:57.497Z,12.80
2018-04-25T12:01:23.652Z,12.80
2018-04-25T12:03:49.795Z,13.00
2018-04-25T12:06:16.032Z,13.10
2018-04-25T12:08:42.912Z,12.90
2018-04-25T12:11:09.083Z,12.90
2018-04-25T12:13:36.045Z,12.90
2018-04-25T12:16:03.073Z,12.90
2018-04-25T12:18:29.288Z,12.90
2018-04-25T12:20:55.444Z,13.00
2018-04-25T12:23:22.348Z,13.30
2018-04-25T12:25:48.482Z,13.30
2018-04-25T12:28:14.627Z,13.50
2018-04-25T12:30:40.811Z,13.30
2018-04-25T12:33:06.939Z,13.60
2018-04-25T12:35:33.103Z,13.70
2018-04-25T12:37:59.240Z,13.80
2018-04-25T12:40:25.385Z,13.70
2018-04-25T12:42:52.275Z,13.70
2018-04-25T12:45:18.507Z,13.60
2018-04-25T12:47:44.652Z,13.80
2018-04-25T12:50:10.801Z,13.60
2018-04-25T12:52:37.668Z,13.60
2018-04-25T12:55:03.846Z,13.60
2018-04-25T12:57:30.009Z,13.60
2018-04-25T12:59:56.894Z,14.20
2018-04-25T13:02:23.063Z,14.20
2018-04-25T13:04:49.192Z,13.90
2018-04-25T13:07:17.241Z,13.50
2018-04-25T13:09:43.364Z,13.40
2018-04-25T13:12:10.604Z,13.30
2018-04-25T13:14:36.728Z,13.30
2018-04-25T13:17:03.599Z,13.80
2018-04-25T13:19:30.856Z,13.80
2018-04-25T13:21:57.003Z,14.10
2018-04-25T13:24:23.880Z,14.00
2018-04-25T13:26:50.028Z,14.00
2018-04-25T13:29:16.208Z,14.10
2018-04-25T13:31:42.343Z,13.90
2018-04-25T13:34:08.475Z,13.80
2018-04-25T13:36:34.667Z,13.50
2018-04-25T13:39:01.531Z,13.50
2018-04-25T13:41:28.484Z,13.40
2018-04-25T13:43:54.697Z,13.40
2018-04-25T13:46:20.875Z,13.10
2018-04-25T13:48:47.018Z,12.80
2018-04-25T13:51:13.180Z,12.50
2018-04-25T13:53:39.328Z,12.40
2018-04-25T13:56:05.506Z,12.50
2018-04-25T13:58:32.516Z,12.80
2018-04-25T14:00:58.783Z,12.80
2018-04-25T14:03:25.806Z,13.60
2018-04-25T14:06:06.986Z,13.50
2018-04-25T14:08:33.087Z,13.20
2018-04-25T14:10:59.273Z,12.80
2018-04-25T14:13:26.195Z,13.10
2018-04-25T14:15:52.372Z,13.10
2018-04-25T14:18:18.602Z,13.20
2018-04-25T14:20:44.740Z,13.40
2018-04-25T14:23:11.269Z,13.60
2018-04-25T14:25:38.231Z,13.10
2018-04-25T14:28:04.370Z,13.10
2018-04-25T14:30:30.615Z,13.00
2018-04-25T14:32:56.784Z,13.00
2018-04-25T14:35:22.999Z,13.10
2018-04-25T14:37:49.871Z,12.70
2018-04-25T14:40:16.019Z,12.70
2018-04-25T14:42:42.181Z,12.70
2018-04-25T14:45:09.043Z,12.60
2018-04-25T14:47:35.451Z,12.60
2018-04-25T14:50:01.595Z,12.60
2018-04-25T14:52:28.472Z,12.50
2018-04-25T14:54:54.616Z,12.50
2018-04-25T14:57:20.761Z,12.40
2018-04-25T14:59:46.951Z,12.40
2018-04-25T15:02:13.096Z,12.40
2018-04-25T15:04:39.292Z,12.30
2018-04-25T15:07:05.455Z,12.30
2018-04-25T15:09:31.603Z,12.20
2018-04-25T15:11:58.416Z,12.10
2018-04-25T15:14:24.629Z,12.10
2018-04-25T15:16:50.759Z,12.20
2018-04-25T15:19:16.899Z,12.20
2018-04-25T15:21:43.009Z,12.10
2018-04-25T15:24:09.145Z,12.00
2018-04-25T15:26:35.288Z,12.00
2018-04-25T15:31:41.996Z,12.30
2018-04-25T15:34:08.198Z,12.50
2018-04-25T15:36:34.344Z,12.70
2018-04-25T15:39:00.505Z,12.80
2018-04-25T15:41:26.708Z,13.00
2018-04-25T15:43:53.596Z,12.70
2018-04-25T15:46:19.736Z,12.70
2018-04-25T15:48:46.697Z,12.40
2018-04-25T15:51:12.882Z,12.40
2018-04-25T15:53:39.049Z,12.40
2018-04-25T15:56:05.239Z,12.30
2018-04-25T15:58:31.383Z,12.20
2018-04-25T16:00:57.555Z,12.20
2018-04-25T16:03:23.684Z,12.20
2018-04-25T16:05:49.819Z,12.40
2018-04-25T16:08:16.748Z,12.20
2018-04-25T16:10:43.127Z,12.20
2018-04-25T16:13:09.307Z,12.20
2018-04-25T16:15:35.459Z,12.00
2018-04-25T16:18:02.403Z,11.70
2018-04-25T16:20:29.272Z,11.60
2018-04-25T16:22:55.528Z,11.60
2018-04-25T16:25:21.631Z,11.70
2018-04-25T16:27:47.756Z,11.90
2018-04-25T16:30:13.887Z,11.90
2018-04-25T16:32:40.683Z,11.80
2018-04-25T16:35:06.877Z,11.80
2018-04-25T16:37:33.027Z,11.90
2018-04-25T16:39:59.932Z,12.10
2018-04-25T16:42:26.123Z,12.10
2018-04-25T16:44:52.258Z,12.00
2018-04-25T16:47:18.399Z,12.10
2018-04-25T16:49:44.670Z,12.10
2018-04-25T16:52:10.812Z,12.10
2018-04-25T16:54:37.848Z,12.10
2018-04-25T16:57:04.875Z,12.20
2018-04-25T16:59:31.768Z,12.30
2018-04-25T17:01:57.972Z,12.30
2018-04-25T17:04:24.858Z,12.60
2018-04-25T17:06:51.040Z,12.60
2018-04-25T17:09:17.164Z,12.70
2018-04-25T17:11:43.283Z,13.00
2018-04-25T17:14:09.439Z,13.40
2018-04-25T17:16:36.312Z,14.30
2018-04-25T17:19:02.576Z,14.30
2018-04-25T17:21:28.739Z,15.10
2018-04-25T17:23:55.723Z,15.60
2018-04-25T17:26:22.024Z,15.60
2018-04-25T17:28:48.267Z,15.60
2018-04-25T17:31:14.414Z,15.20
2018-04-25T17:33:41.280Z,14.70
2018-04-25T17:36:07.511Z,14.70
2018-04-25T17:38:36.897Z,14.40
2018-04-25T17:41:04.488Z,14.20
2018-04-25T17:43:32.954Z,14.00
2018-04-25T17:45:59.731Z,13.80
2018-04-25T17:48:27.299Z,13.50
2018-04-25T17:50:54.110Z,13.50
2018-04-25T17:53:21.190Z,13.40
2018-04-25T17:55:47.647Z,13.20
2018-04-25T17:58:13.783Z,13.10
2018-04-25T18:00:40.226Z,13.00
2018-04-25T18:03:06.386Z,12.70
2018-04-25T18:05:33.392Z,12.60
2018-04-25T18:07:59.604Z,12.50
2018-04-25T18:10:25.763Z,12.50
2018-04-25T18:12:51.919Z,12.40
2018-04-25T18:15:18.795Z,12.10
2018-04-25T18:17:45.009Z,12.10
2018-04-25T18:20:11.141Z,12.00
2018-04-25T18:22:37.653Z,12.00
2018-04-25T18:25:04.548Z,11.70
2018-04-25T18:27:30.974Z,11.70
2018-04-25T18:29:57.165Z,11.60
2018-04-25T18:32:23.329Z,11.60
2018-04-25T18:34:49.472Z,11.40
2018-04-25T18:37:15.602Z,11.40
2018-04-25T18:39:41.780Z,11.20
2018-04-25T18:42:08.515Z,11.20
2018-04-25T18:44:35.119Z,11.20
2018-04-25T18:47:02.523Z,10.80
2018-04-25T18:49:28.754Z,10.60
2018-04-25T18:51:54.885Z,10.50
2018-04-25T18:54:21.079Z,10.30
2018-04-25T18:56:48.140Z,10.10
2018-04-25T18:59:14.334Z,10.10
2018-04-25T19:01:41.791Z,10.00
2018-04-25T19:04:08.019Z,10.00
2018-04-25T19:06:34.336Z,9.90
2018-04-25T19:09:01.756Z,9.80
2018-04-25T19:11:28.051Z,9.70
2018-04-25T19:13:54.937Z,9.60
2018-04-25T19:16:21.092Z,9.50
2018-04-25T19:18:47.307Z,9.50
2018-04-25T19:21:13.427Z,9.50
2018-04-25T19:23:39.749Z,9.40
2018-04-25T19:26:05.873Z,9.30
2018-04-25T19:28:32.143Z,9.30
2018-04-25T19:30:58.340Z,9.30
2018-04-25T19:33:24.816Z,9.30
2018-04-25T19:35:55.017Z,9.20
2018-04-25T19:38:30.407Z,9.10
2018-04-25T19:41:04.881Z,9.00
2018-04-25T19:43:33.165Z,9.10
2018-04-25T19:46:00.039Z,9.00
2018-04-25T19:48:26.308Z,8.90
2018-04-25T19:50:52.439Z,8.80
2018-04-25T19:53:18.607Z,8.80
2018-04-25T19:55:45.536Z,8.70
2018-04-25T19:58:11.680Z,8.70
2018-04-25T20:00:39.015Z,8.60
2018-04-25T20:03:05.192Z,8.60
2018-04-25T20:05:31.349Z,8.50
2018-04-25T20:07:57.818Z,8.50
2018-04-25T20:10:24.044Z,8.40
2018-04-25T20:12:51.068Z,8.50
2018-04-25T20:15:17.486Z,8.40
2018-04-25T20:17:44.410Z,8.30
2018-04-25T20:20:10.607Z,8.30
2018-04-25T20:22:36.715Z,8.30
2018-04-25T20:25:02.948Z,8.20
2018-04-25T20:27:29.930Z,8.00
2018-04-25T20:29:56.103Z,8.00
2018-04-25T20:32:22.303Z,7.90
2018-04-25T20:34:48.443Z,7.90
2018-04-25T20:37:14.711Z,7.90
2018-04-25T20:39:41.592Z,7.90
2018-04-25T20:42:07.743Z,7.90
2018-04-25T20:44:33.884Z,7.80
2018-04-25T20:47:00.071Z,7.80
2018-04-25T20:49:27.410Z,7.80
2018-04-25T20:51:53.559Z,7.80
2018-04-25T20:54:20.014Z,7.70
2018-04-25T20:56:46.235Z,7.60
2018-04-25T20:59:12.523Z,7.50
2018-04-25T21:01:38.724Z,7.50
2018-04-25T21:04:06.158Z,7.40
2018-04-25T21:06:33.163Z,7.40
2018-04-25T21:08:59.381Z,7.30
2018-04-25T21:11:25.643Z,7.30
2018-04-25T21:13:51.872Z,7.30
2018-04-25T21:16:18.155Z,7.40
2018-04-25T21:18:45.590Z,7.20
2018-04-25T21:21:11.887Z,7.20
2018-04-25T21:23:39.650Z,7.20
2018-04-25T21:26:05.835Z,7.20
2018-04-25T21:28:32.808Z,7.30
2018-04-25T21:30:58.955Z,7.30
2018-04-25T21:33:25.328Z,7.40
2018-04-25T21:35:52.266Z,7.60
2018-04-25T21:38:19.167Z,7.60
2018-04-25T21:40:46.495Z,7.60
2018-04-25T21:43:13.806Z,7.60
2018-04-25T21:45:39.993Z,7.60
2018-04-25T21:50:58.200Z,7.70
2018-04-25T21:53:24.356Z,7.60
2018-04-25T21:55:51.284Z,7.60
2018-04-25T21:58:20.025Z,7.50
2018-04-25T22:00:46.232Z,7.50
2018-04-25T22:03:12.516Z,7.50
2018-04-25T22:05:38.701Z,7.40
2018-04-25T22:08:04.887Z,7.30
2018-04-25T22:10:31.833Z,7.10
2018-04-25T22:12:59.054Z,7.10
2018-04-25T22:15:25.208Z,7.00
2018-04-25T22:17:52.171Z,7.00
2018-04-25T22:20:18.401Z,7.00
2018-04-25T22:22:44.576Z,7.00
2018-04-25T22:25:10.811Z,6.90
2018-04-25T22:27:37.059Z,6.80
2018-04-25T22:30:04.004Z,6.70
2018-04-25T22:32:31.034Z,6.70
2018-04-25T22:34:58.020Z,6.70
2018-04-25T22:37:24.365Z,6.60
2018-04-25T22:39:50.623Z,6.60
2018-04-25T22:42:16.864Z,6.70
2018-04-25T22:44:43.115Z,6.70
2018-04-25T22:47:10.045Z,6.50
2018-04-25T22:49:36.339Z,6.40
2018-04-25T22:52:02.555Z,6.40
2018-04-25T22:54:28.828Z,6.40
2018-04-25T22:56:55.049Z,6.40
2018-04-25T22:59:21.308Z,6.30
2018-04-25T23:01:48.248Z,6.10
2018-04-25T23:04:15.187Z,6.10
2018-04-25T23:06:41.464Z,6.10
2018-04-25T23:09:07.679Z,6.10
2018-04-25T23:11:34.344Z,6.10
2018-04-25T23:14:00.560Z,6.10
2018-04-25T23:16:26.776Z,6.00
2018-04-25T23:18:52.947Z,6.00
2018-04-25T23:21:19.415Z,6.00
2018-04-25T23:23:45.623Z,6.00
2018-04-25T23:26:11.920Z,6.00
2018-04-25T23:28:38.135Z,6.00
2018-04-25T23:31:04.355Z,6.00
2018-04-25T23:33:30.828Z,6.00
2018-04-25T23:35:57.050Z,6.00
2018-04-25T23:38:23.237Z,5.90
2018-04-25T23:40:49.436Z,5.90
2018-04-25T23:43:17.216Z,5.80
2018-04-25T23:45:44.180Z,5.80
2018-04-25T23:48:10.408Z,5.70
2018-04-25T23:50:36.852Z,5.80
2018-04-25T23:53:02.960Z,5.70
2018-04-25T23:55:29.135Z,5.70
2018-04-25T23:57:55.292Z,5.70
